Time;durP1;ratioP1;P1;durP2;ratioP2;P2;SDS_P1;SDS_P2;PMS_P1;PMS_P2;Temp;Humidity;BMP_temperature;BMP_pressure;BME280_temperature;BME280_humidity;BME280_pressure;Samples;Min_cycle;Max_cycle;Signal;HPM_P1;HPM_P2
2021/03/14 00:01:13;;;;;;;7.50;2.53;;;;;;;1.24;84.18;98685.09;6186475;23;20292;-76
2021/03/14 00:03:40;;;;;;;8.25;2.53;;;;;;;1.23;83.90;98686.09;6186858;23;20009;-76
2021/03/14 00:06:06;;;;;;;6.47;2.60;;;;;;;1.25;83.98;98696.50;6161454;23;20075;-76
2021/03/14 00:08:31;;;;;;;5.95;2.60;;;;;;;1.23;83.80;98701.19;6186399;23;20008;-76
2021/03/14 00:10:58;;;;;;;8.93;2.60;;;;;;;1.18;84.08;98704.38;6187636;23;20028;-76
2021/03/14 00:13:33;;;;;;;9.82;2.83;;;;;;;1.15;84.12;98702.94;6187089;23;20384;-76
2021/03/14 00:15:59;;;;;;;9.25;2.65;;;;;;;1.14;84.06;98703.94;6186258;23;20366;-76
2021/03/14 00:18:31;;;;;;;8.77;2.72;;;;;;;1.06;84.40;98692.66;6186914;23;20033;-76
2021/03/14 00:20:57;;;;;;;9.70;2.70;;;;;;;1.09;84.18;98700.22;6187955;23;20001;-76
2021/03/14 00:23:24;;;;;;;7.65;2.65;;;;;;;1.09;84.21;98701.06;6186878;23;19997;-76
2021/03/14 00:25:49;;;;;;;7.65;2.53;;;;;;;1.07;84.23;98711.00;6187776;23;20001;-76
2021/03/14 00:28:17;;;;;;;10.20;2.60;;;;;;;1.06;84.00;98711.19;6161905;23;20009;-76
2021/03/14 00:30:43;;;;;;;9.25;2.35;;;;;;;1.04;83.72;98715.88;6186602;23;20016;-76
2021/03/14 00:33:09;;;;;;;8.65;2.10;;;;;;;0.90;83.91;98710.44;6187288;23;20462;-76
2021/03/14 00:35:35;;;;;;;8.77;2.60;;;;;;;0.84;84.17;98697.13;6186165;23;20052;-76
2021/03/14 00:38:00;;;;;;;7.00;2.30;;;;;;;0.94;84.39;98724.94;6187204;23;20001;-76
2021/03/14 00:40:27;;;;;;;7.18;2.72;;;;;;;0.93;84.22;98725.97;6186537;23;20044;-76
2021/03/14 00:43:01;;;;;;;11.07;2.70;;;;;;;0.85;nan;98722.59;6186531;23;20001;-76
2021/03/14 00:45:28;;;;;;;9.80;2.50;;;;;;;0.84;84.14;98716.50;6185621;23;20005;-76
2021/03/14 00:47:53;;;;;;;9.25;2.67;;;;;;;0.88;84.50;98730.97;6187317;23;20009;-76
2021/03/14 00:50:19;;;;;;;7.35;2.55;;;;;;;0.74;84.27;98709.88;6186814;23;20020;-76
2021/03/14 00:52:45;;;;;;;4.90;2.10;;;;;;;0.85;84.52;98735.84;6186480;23;20068;-76
2021/03/14 00:55:11;;;;;;;9.07;2.95;;;;;;;0.77;84.44;98726.19;6184602;23;20395;-76
2021/03/14 00:57:36;;;;;;;5.65;2.60;;;;;;;0.81;83.92;98740.69;6187258;23;20044;-76
2021/03/14 01:00:04;;;;;;;5.95;2.63;;;;;;;0.81;83.95;98745.16;6187476;23;20004;-76
2021/03/14 01:02:29;;;;;;;7.65;2.15;;;;;;;0.79;84.23;98748.00;6161559;23;20036;-76
2021/03/14 01:04:55;;;;;;;8.60;2.80;;;;;;;0.60;84.35;98727.44;6186817;23;20019;-76
2021/03/14 01:07:20;;;;;;;8.63;2.33;;;;;;;0.74;84.58;98763.63;6185336;23;20009;-76
2021/03/14 01:09:46;;;;;;;5.70;2.25;;;;;;;0.71;84.46;98764.00;6186537;23;20395;-76
2021/03/14 01:12:12;;;;;;;9.60;2.80;;;;;;;0.68;84.66;98772.31;6159646;23;20019;-76
2021/03/14 01:14:37;;;;;;;6.95;2.38;;;;;;;0.63;85.05;98767.56;6186370;23;20075;-76
2021/03/14 01:17:04;;;;;;;5.75;2.38;;;;;;;0.64;85.08;98774.50;6185899;23;20009;-76
2021/03/14 01:19:29;;;;;;;3.45;2.10;;;;;;;0.73;84.30;98772.59;6185634;23;20089;-76
2021/03/14 01:21:55;;;;;;;9.25;2.08;;;;;;;0.72;84.67;98785.97;6185374;23;20587;-76
2021/03/14 01:24:21;;;;;;;4.20;2.20;;;;;;;0.61;84.48;98780.16;6186554;23;20070;-76
2021/03/14 01:26:47;;;;;;;8.50;2.38;;;;;;;0.38;84.74;98748.53;6188109;23;20009;-76
2021/03/14 01:29:12;;;;;;;7.70;2.40;;;;;;;0.58;84.73;98793.75;6193876;23;20015;-76
2021/03/14 01:31:38;;;;;;;9.07;2.65;;;;;;;0.40;84.78;98762.41;6189974;23;20036;-76
2021/03/14 01:34:03;;;;;;;8.77;3.03;;;;;;;0.51;85.06;98784.09;6186460;23;20008;-76
2021/03/14 01:36:29;;;;;;;6.35;2.35;;;;;;;0.54;84.90;98784.56;6185525;23;20009;-76
2021/03/14 01:38:55;;;;;;;7.57;2.10;;;;;;;0.48;84.57;98782.63;6186098;23;20029;-76
2021/03/14 01:41:20;;;;;;;8.30;2.60;;;;;;;0.55;84.45;98794.13;6161201;23;20009;-76
2021/03/14 01:43:46;;;;;;;6.15;2.45;;;;;;;0.54;84.83;98791.69;6187179;23;20005;-76
2021/03/14 01:46:12;;;;;;;7.47;2.58;;;;;;;0.41;84.57;98795.78;6160238;23;20036;-76
2021/03/14 01:48:39;;;;;;;11.70;2.80;;;;;;;0.51;84.47;98810.56;6161367;23;20103;-76
2021/03/14 01:51:05;;;;;;;9.88;2.47;;;;;;;0.45;85.03;98802.34;6185990;23;20013;-76
2021/03/14 01:53:32;;;;;;;7.75;2.65;;;;;;;0.38;84.94;98793.50;6185884;23;20013;-76
2021/03/14 01:55:58;;;;;;;7.88;2.88;;;;;;;0.35;84.61;98790.41;6187342;23;20016;-76
2021/03/14 01:58:24;;;;;;;12.52;2.90;;;;;;;0.42;85.14;98817.75;6184270;23;20074;-76
2021/03/14 02:00:54;;;;;;;11.30;2.95;;;;;;;0.38;84.92;98821.78;6185828;23;20036;-76
2021/03/14 02:03:24;;;;;;;6.38;2.55;;;;;;;0.21;85.16;98814.03;6185295;23;20012;-76
2021/03/14 02:05:51;;;;;;;5.90;2.33;;;;;;;0.26;85.00;98821.41;6186240;23;20036;-76
2021/03/14 02:08:19;;;;;;;8.57;2.45;;;;;;;0.38;84.39;98822.59;6160652;23;20033;-76
2021/03/14 02:10:48;;;;;;;7.65;2.70;;;;;;;0.37;84.11;98838.66;6184385;23;20021;-76
2021/03/14 02:13:18;;;;;;;5.90;2.20;;;;;;;0.40;84.25;98841.78;6184458;23;20415;-76
2021/03/14 02:16:09;;;;;;;7.47;2.55;;;;;;;0.35;84.67;98845.97;6185613;23;20036;-76
2021/03/14 02:18:37;;;;;;;5.50;2.22;;;;;;;0.30;84.43;98843.03;6185472;23;20005;-76
2021/03/14 02:21:04;;;;;;;4.47;2.03;;;;;;;0.31;84.60;98848.16;6184069;23;20407;-76
2021/03/14 02:23:48;;;;;;;8.40;2.67;;;;;;;0.25;84.37;98858.63;6160307;23;20004;-76
2021/03/14 02:26:43;;;;;;;8.98;2.60;;;;;;;0.09;84.85;98854.31;6186524;23;20391;-76
2021/03/14 02:29:12;;;;;;;7.10;2.50;;;;;;;0.08;84.77;98861.44;6186409;23;20288;-76
2021/03/14 02:31:40;;;;;;;5.93;1.90;;;;;;;0.07;84.85;98872.19;6185162;23;20193;-76
2021/03/14 02:34:11;;;;;;;7.60;2.33;;;;;;;-0.06;85.29;98857.75;6185756;23;20005;-76
2021/03/14 02:36:39;;;;;;;8.60;2.40;;;;;;;0.11;84.90;98878.75;6186473;23;20000;-76
2021/03/14 02:39:08;;;;;;;8.80;2.30;;;;;;;-0.01;84.86;98850.09;6185267;23;20197;-75
2021/03/14 02:41:35;;;;;;;6.70;2.40;;;;;;;0.13;84.60;98876.75;6185819;23;20005;-76
2021/03/14 02:44:01;;;;;;;7.00;2.03;;;;;;;0.07;84.58;98885.41;6186279;23;20009;-76
2021/03/14 02:46:27;;;;;;;5.72;2.28;;;;;;;-0.02;84.78;98880.19;6185461;23;20060;-76
2021/03/14 02:48:55;;;;;;;7.78;2.22;;;;;;;-0.06;84.76;98884.19;6185056;23;20008;-76
2021/03/14 02:51:20;;;;;;;8.93;2.13;;;;;;;0.02;84.85;98904.44;6184757;23;20005;-76
2021/03/14 02:53:47;;;;;;;7.72;1.83;;;;;;;0.02;84.64;98916.84;6185207;23;20063;-76
2021/03/14 02:56:13;;;;;;;9.68;2.22;;;;;;;0.06;85.11;98918.13;6183992;23;20074;-76
2021/03/14 02:58:39;;;;;;;10.05;2.35;;;;;;;0.03;84.67;98919.31;6160031;23;20336;-76
2021/03/14 03:01:07;;;;;;;4.43;2.20;;;;;;;0.01;85.02;98917.84;6186090;23;20458;-76
2021/03/14 03:03:34;;;;;;;5.43;2.28;;;;;;;0.05;84.99;98927.88;6184738;23;20029;-76
2021/03/14 03:06:01;;;;;;;6.65;2.20;;;;;;;0.06;84.85;98937.47;6160396;23;20005;-76
2021/03/14 03:08:30;;;;;;;4.85;2.20;;;;;;;0.04;85.11;98941.31;6159405;23;20071;-76
2021/03/14 03:10:58;;;;;;;7.70;2.28;;;;;;;0.02;84.97;98945.94;6185844;23;20032;-76
2021/03/14 03:13:25;;;;;;;5.30;2.30;;;;;;;-0.05;84.78;98933.41;6185018;23;20100;-76
2021/03/14 03:15:55;;;;;;;5.65;2.30;;;;;;;0.04;84.50;98957.97;6185515;23;20009;-76
2021/03/14 03:18:21;;;;;;;10.35;2.40;;;;;;;-0.06;84.59;98942.34;6160146;23;20016;-76
2021/03/14 03:20:48;;;;;;;6.20;2.53;;;;;;;0.03;84.42;98961.59;6185854;23;20351;-76
2021/03/14 03:23:15;;;;;;;5.32;2.67;;;;;;;0.02;84.81;98964.44;6159598;23;20365;-76
2021/03/14 03:25:40;;;;;;;9.77;2.35;;;;;;;-0.01;84.82;98971.72;6185999;23;20001;-76
2021/03/14 03:28:06;;;;;;;8.85;2.40;;;;;;;-0.03;84.51;98978.19;6185267;23;20028;-76
2021/03/14 03:30:32;;;;;;;4.72;2.35;;;;;;;-0.15;84.30;98950.50;6184038;23;20008;-76
2021/03/14 03:32:58;;;;;;;5.05;2.20;;;;;;;-0.04;84.90;98977.34;6186089;23;20486;-76
2021/03/14 03:35:25;;;;;;;8.77;2.47;;;;;;;-0.11;84.54;98980.88;6185926;23;20005;-76
2021/03/14 03:37:52;;;;;;;8.30;2.40;;;;;;;-0.24;84.94;98970.88;6183958;23;20029;-76
2021/03/14 03:40:22;;;;;;;5.55;2.33;;;;;;;-0.16;84.92;98989.34;6159736;23;20017;-76
2021/03/14 03:43:09;;;;;;;8.15;2.33;;;;;;;-0.20;85.42;99000.44;6183930;23;20009;-76
2021/03/14 03:45:48;;;;;;;5.63;2.20;;;;;;;-0.31;85.18;99001.66;6185953;23;20028;-76
2021/03/14 03:48:19;;;;;;;5.80;2.10;;;;;;;-0.32;85.49;99000.00;6185233;23;20018;-76
2021/03/14 03:50:46;;;;;;;8.55;2.55;;;;;;;-0.34;84.94;99002.81;6183553;23;20414;-76
2021/03/14 03:53:13;;;;;;;9.68;2.10;;;;;;;-0.33;85.35;99014.19;6185022;23;20009;-75
2021/03/14 03:55:40;;;;;;;7.50;1.98;;;;;;;-0.45;85.42;99005.03;6159277;23;20008;-75
2021/03/14 03:58:09;;;;;;;6.55;2.25;;;;;;;-0.58;85.07;98995.03;6183177;23;20009;-76
2021/03/14 04:00:35;;;;;;;7.80;2.20;;;;;;;-0.36;85.18;99019.88;6185056;23;20008;-76
2021/03/14 04:03:02;;;;;;;6.18;2.22;;;;;;;-0.47;85.03;99013.13;6185366;23;20001;-76
2021/03/14 04:05:28;;;;;;;6.85;2.15;;;;;;;-0.47;84.91;99021.03;6185259;23;20011;-76
2021/03/14 04:07:54;;;;;;;6.47;2.20;;;;;;;-0.51;84.86;99032.97;6183849;23;20041;-76
2021/03/14 04:10:22;;;;;;;5.93;2.50;;;;;;;-0.54;85.02;99038.59;6185981;23;20311;-76
2021/03/14 04:12:50;;;;;;;5.28;2.05;;;;;;;-0.65;85.57;99028.41;6159396;23;20020;-76
2021/03/14 04:15:23;;;;;;;5.38;2.28;;;;;;;-0.60;85.32;99037.44;6160125;23;20020;-76
2021/03/14 04:17:50;;;;;;;8.88;2.30;;;;;;;-0.57;84.92;99037.09;6184063;23;20005;-76
2021/03/14 04:20:20;;;;;;;7.80;2.10;;;;;;;-0.59;84.73;99046.22;6185823;23;20032;-75
2021/03/14 04:22:51;;;;;;;5.05;2.05;;;;;;;-0.54;84.91;99054.44;6186164;23;19997;-75
2021/03/14 04:25:18;;;;;;;5.38;2.10;;;;;;;-0.59;85.06;99052.31;6186518;23;20085;-75
2021/03/14 04:27:46;;;;;;;6.05;2.28;;;;;;;-0.68;85.39;99058.63;6185564;23;20020;-76
2021/03/14 04:30:13;;;;;;;6.00;2.53;;;;;;;-0.98;85.29;99026.66;6187210;23;20419;-76
2021/03/14 04:32:39;;;;;;;7.20;2.30;;;;;;;-0.79;85.54;99066.91;6161313;23;20032;-76
2021/03/14 04:35:07;;;;;;;5.88;2.42;;;;;;;-0.85;85.42;99062.28;6186068;23;20567;-75
2021/03/14 04:37:34;;;;;;;6.22;2.25;;;;;;;-0.90;85.54;99069.88;6159912;23;20044;-76
2021/03/14 04:40:00;;;;;;;8.35;2.00;;;;;;;-1.03;85.43;99059.84;6186933;23;20023;-75
2021/03/14 04:42:27;;;;;;;7.10;2.15;;;;;;;-1.04;85.58;99063.47;6160699;23;20005;-75
2021/03/14 04:44:53;;;;;;;6.85;2.20;;;;;;;-1.03;85.80;99071.22;6187619;23;20023;-76
2021/03/14 04:47:18;;;;;;;8.23;2.22;;;;;;;-1.06;85.87;99079.50;6186519;23;20383;-76
2021/03/14 04:49:44;;;;;;;5.55;2.05;;;;;;;-1.24;85.45;99061.19;6186386;23;20009;-75
2021/03/14 04:52:12;;;;;;;5.82;2.30;;;;;;;-1.14;85.57;99084.75;6186223;23;20056;-75
2021/03/14 04:54:38;;;;;;;5.80;2.30;;;;;;;-1.20;85.88;99077.50;6187478;23;20009;-76
2021/03/14 04:57:04;;;;;;;4.20;2.10;;;;;;;-1.15;85.64;99098.13;6160716;23;20013;-76
2021/03/14 04:59:30;;;;;;;5.78;2.40;;;;;;;-1.28;85.35;99093.34;6185444;23;20023;-76
2021/03/14 05:01:56;;;;;;;7.93;2.75;;;;;;;-1.34;85.83;99099.28;6138446;23;20020;-76
2021/03/14 05:04:23;;;;;;;11.20;2.30;;;;;;;-1.45;85.51;99103.09;6160281;23;20415;-76
2021/03/14 05:06:51;;;;;;;9.90;3.00;;;;;;;-1.47;85.93;99097.94;6186848;23;20011;-76
2021/03/14 05:09:17;;;;;;;7.30;2.90;;;;;;;-1.28;86.12;99125.03;6137051;23;20040;-76
2021/03/14 05:11:45;;;;;;;8.07;3.63;;;;;;;-1.35;85.97;99111.66;6185861;23;20025;-76
2021/03/14 05:14:11;;;;;;;8.10;3.47;;;;;;;-1.08;86.00;99122.88;6185277;23;20395;-76
2021/03/14 05:16:38;;;;;;;9.07;3.78;;;;;;;-0.80;85.80;99131.25;6187389;23;20013;-76
2021/03/14 05:19:07;;;;;;;11.98;4.25;;;;;;;-0.65;86.13;99134.88;6161050;23;20039;-76
2021/03/14 05:21:32;;;;;;;8.90;3.80;;;;;;;-0.42;86.28;99142.91;6184785;23;20108;-76
2021/03/14 05:23:58;;;;;;;9.98;4.20;;;;;;;-0.27;86.40;99145.66;6187193;23;20033;-76
2021/03/14 05:26:25;;;;;;;11.48;4.55;;;;;;;-0.18;86.19;99160.50;6186531;23;20032;-76
2021/03/14 05:28:51;;;;;;;7.97;3.63;;;;;;;-0.57;86.11;99097.84;6160475;23;20303;-76
2021/03/14 05:31:30;;;;;;;7.60;4.07;;;;;;;-0.28;86.61;99151.97;6185455;23;20013;-76
2021/03/14 05:33:57;;;;;;;6.85;3.22;;;;;;;-0.18;86.83;99164.97;6186124;23;20052;-76
2021/03/14 05:36:25;;;;;;;9.13;3.78;;;;;;;-0.09;86.76;99179.81;6186551;23;20033;-75
2021/03/14 05:38:52;;;;;;;9.05;3.75;;;;;;;-0.15;86.31;99167.28;6185087;23;20009;-76
2021/03/14 05:41:18;;;;;;;9.40;3.70;;;;;;;-0.16;86.93;99181.50;6186482;23;20025;-76
2021/03/14 05:43:45;;;;;;;10.68;3.80;;;;;;;-0.20;86.39;99186.28;6185175;23;20027;-76
2021/03/14 05:46:11;;;;;;;10.05;3.92;;;;;;;-0.30;86.30;99169.78;6184782;23;20009;-76
2021/03/14 05:48:37;;;;;;;6.28;3.35;;;;;;;-0.26;87.14;99176.41;6186325;23;20402;-76
2021/03/14 05:51:03;;;;;;;10.35;3.83;;;;;;;-0.21;86.89;99189.09;6159504;23;20013;-76
2021/03/14 05:53:30;;;;;;;6.78;3.47;;;;;;;-0.21;86.45;99191.75;6185746;23;20005;-76
2021/03/14 05:55:56;;;;;;;10.05;3.70;;;;;;;-0.37;86.86;99176.75;6160676;23;20075;-76
2021/03/14 05:58:22;;;;;;;7.95;3.67;;;;;;;-0.26;87.01;99194.91;6184862;23;20024;-77
2021/03/14 06:00:49;;;;;;;6.97;3.33;;;;;;;-0.28;86.87;99192.41;6185564;23;20013;-77
2021/03/14 06:03:15;;;;;;;8.90;3.88;;;;;;;-0.19;86.09;99219.66;6160532;23;20001;-76
2021/03/14 06:05:40;;;;;;;14.60;3.95;;;;;;;-0.21;86.38;99218.19;6159798;23;20606;-76
2021/03/14 06:08:06;;;;;;;10.40;4.10;;;;;;;-0.22;86.04;99222.66;6160189;23;20005;-76
2021/03/14 06:10:32;;;;;;;6.75;3.55;;;;;;;-0.25;86.92;99222.97;6185074;23;20025;-75
2021/03/14 06:12:58;;;;;;;9.25;3.50;;;;;;;-0.26;86.26;99219.53;6159664;23;20296;-76
2021/03/14 06:15:23;;;;;;;6.78;3.40;;;;;;;-0.22;86.12;99219.19;6186962;23;20012;-76
2021/03/14 06:17:49;;;;;;;9.38;3.63;;;;;;;-0.20;86.05;99223.28;6160418;23;20071;-75
2021/03/14 06:20:36;;;;;;;10.38;3.70;;;;;;;-0.18;86.07;99237.16;6184586;23;20005;-75
2021/03/14 06:23:10;;;;;;;9.25;3.80;;;;;;;-0.23;86.69;99215.72;6185367;23;20071;-75
2021/03/14 06:25:36;;;;;;;7.60;3.50;;;;;;;-0.24;86.47;99236.03;6184388;23;20068;-76
2021/03/14 06:28:02;;;;;;;10.15;3.97;;;;;;;-0.21;86.03;99240.16;6186361;23;20016;-77
2021/03/14 06:30:33;;;;;;;11.50;3.65;;;;;;;-0.20;86.49;99260.28;6185825;23;20000;-75
2021/03/14 06:33:09;;;;;;;10.80;3.65;;;;;;;-0.33;86.81;99252.06;6184125;23;20009;-75
2021/03/14 06:35:55;;;;;;;12.40;4.20;;;;;;;-0.36;86.34;99253.25;6186260;23;20012;-75
2021/03/14 06:38:35;;;;;;;9.65;4.45;;;;;;;-0.28;86.58;99269.06;6161264;23;20033;-75
2021/03/14 06:41:06;;;;;;;9.00;3.03;;;;;;;-0.27;86.83;99278.63;6184949;23;20036;-75
2021/03/14 06:43:41;;;;;;;11.45;3.33;;;;;;;-0.27;86.64;99272.53;6184331;23;20028;-76
2021/03/14 06:46:26;;;;;;;4.32;3.08;;;;;;;-0.19;86.34;99285.75;6186504;23;20005;-75
2021/03/14 06:49:11;;;;;;;7.22;3.03;;;;;;;-0.09;86.42;99291.69;6183990;23;20004;-75
2021/03/14 06:51:39;;;;;;;5.60;2.65;;;;;;;0.10;85.51;99293.16;6186488;23;20012;-75
2021/03/14 06:54:36;;;;;;;7.05;2.78;;;;;;;0.27;85.02;99299.22;6186117;23;20005;-75
2021/03/14 06:57:01;;;;;;;8.68;2.53;;;;;;;0.44;84.72;99303.47;6185051;23;20001;-74
2021/03/14 06:59:28;;;;;;;7.05;2.65;;;;;;;0.52;85.32;99299.13;6186646;23;20005;-75
2021/03/14 07:02:06;;;;;;;5.78;2.47;;;;;;;0.51;85.11;99300.94;6184364;23;20460;-75
2021/03/14 07:04:36;;;;;;;6.35;2.63;;;;;;;0.56;84.83;99295.13;6185227;23;20005;-75
2021/03/14 07:07:02;;;;;;;6.25;2.50;;;;;;;0.58;84.83;99306.38;6184072;23;20129;-75
2021/03/14 07:09:28;;;;;;;6.93;2.30;;;;;;;0.64;84.38;99300.41;6184567;23;20017;-76
2021/03/14 07:11:53;;;;;;;5.82;2.38;;;;;;;0.70;84.66;99313.78;6159623;23;20645;-76
2021/03/14 07:14:20;;;;;;;5.40;2.40;;;;;;;0.81;83.85;99323.16;6185274;23;20024;-75
2021/03/14 07:16:47;;;;;;;6.85;2.50;;;;;;;0.90;84.24;99330.06;6184878;23;20067;-76
2021/03/14 07:19:16;;;;;;;9.32;2.10;;;;;;;1.00;83.90;99337.81;6185258;23;20004;-76
2021/03/14 07:21:42;;;;;;;6.13;2.13;;;;;;;1.11;83.81;99341.88;6184291;23;20477;-74
2021/03/14 07:24:26;;;;;;;4.88;2.20;;;;;;;1.15;83.78;99349.28;6186812;23;20080;-75
2021/03/14 07:26:52;;;;;;;6.25;2.03;;;;;;;1.23;83.00;99351.09;6185121;23;20005;-75
2021/03/14 07:29:17;;;;;;;6.82;2.42;;;;;;;1.30;83.05;99352.03;6159563;23;20091;-75
2021/03/14 07:31:43;;;;;;;6.07;2.17;;;;;;;1.30;82.59;99345.91;6159280;23;20391;-75
2021/03/14 07:34:09;;;;;;;5.72;2.35;;;;;;;1.39;82.45;99360.75;6184968;23;20005;-76
2021/03/14 07:36:34;;;;;;;4.68;2.13;;;;;;;1.41;82.40;99364.88;6158748;23;20009;-75
2021/03/14 07:39:01;;;;;;;5.40;2.08;;;;;;;1.48;82.19;99372.97;6185668;23;20016;-75
2021/03/14 07:41:29;;;;;;;5.25;1.63;;;;;;;1.47;81.66;99367.84;6185836;23;20077;-75
2021/03/14 07:43:54;;;;;;;7.40;1.90;;;;;;;1.55;81.58;99381.03;6185548;23;20091;-75
2021/03/14 07:46:24;;;;;;;5.55;1.70;;;;;;;1.59;81.47;99391.13;6185171;23;20008;-76
2021/03/14 07:48:52;;;;;;;7.72;1.83;;;;;;;1.67;81.18;99386.75;6183758;23;20363;-76
2021/03/14 07:51:23;;;;;;;6.03;1.80;;;;;;;1.71;80.96;99388.88;6184034;23;20470;-76
2021/03/14 07:53:50;;;;;;;6.05;2.47;;;;;;;1.77;81.00;99393.47;6184971;23;20009;-75
2021/03/14 07:56:16;;;;;;;6.32;1.70;;;;;;;1.86;80.87;99402.22;6184238;23;20084;-75
2021/03/14 07:58:42;;;;;;;6.32;1.88;;;;;;;1.92;80.69;99387.38;6184917;23;20344;-75
2021/03/14 08:01:28;;;;;;;4.22;1.70;;;;;;;1.99;80.79;99391.00;6185619;23;20014;-76
2021/03/14 08:03:55;;;;;;;5.85;1.80;;;;;;;2.18;80.50;99393.13;6185457;23;20303;-75
2021/03/14 08:06:43;;;;;;;3.95;1.50;;;;;;;2.33;80.66;99399.31;6186737;23;20009;-75
2021/03/14 08:09:08;;;;;;;7.25;1.50;;;;;;;2.33;79.47;99388.69;6186923;23;20032;-75
2021/03/14 08:11:34;;;;;;;7.10;1.52;;;;;;;2.44;79.34;99400.69;6185681;23;20149;-76
2021/03/14 08:14:00;;;;;;;6.03;1.50;;;;;;;2.55;79.27;99415.34;6187594;23;20403;-75
2021/03/14 08:16:25;;;;;;;5.80;1.50;;;;;;;2.60;78.63;99407.69;6187659;23;20008;-76
2021/03/14 08:18:52;;;;;;;3.40;1.50;;;;;;;2.80;78.23;99414.09;6161054;23;20084;-76
2021/03/14 08:21:23;;;;;;;7.55;1.83;;;;;;;2.92;77.42;99411.00;6161634;23;20043;-76
2021/03/14 08:23:51;;;;;;;5.70;1.65;;;;;;;2.96;78.13;99415.75;6187670;23;20360;-75
2021/03/14 08:26:22;;;;;;;3.58;1.40;;;;;;;2.95;77.19;99410.63;6186705;23;20044;-75
2021/03/14 08:29:14;;;;;;;3.75;1.50;;;;;;;2.99;76.54;99426.00;6187796;23;20009;-75
2021/03/14 08:31:47;;;;;;;2.95;1.40;;;;;;;3.04;76.76;99428.09;6182354;23;20024;-75
2021/03/14 08:34:40;;;;;;;4.03;1.23;;;;;;;3.08;77.02;99442.69;6186356;23;20056;-75
2021/03/14 08:37:24;;;;;;;5.88;1.33;;;;;;;3.10;76.94;99451.28;6187627;23;20000;-76
2021/03/14 08:40:02;;;;;;;4.17;1.30;;;;;;;3.13;76.85;99455.44;6188027;23;20084;-75
2021/03/14 08:42:55;;;;;;;4.40;1.30;;;;;;;3.15;77.73;99462.22;6186307;23;20005;-75
2021/03/14 08:45:26;;;;;;;3.58;1.35;;;;;;;3.23;76.88;99455.97;6186459;23;20005;-75
2021/03/14 08:47:52;;;;;;;2.63;1.30;;;;;;;3.18;76.70;99426.44;6183690;23;20009;-75
2021/03/14 08:50:18;;;;;;;4.68;1.40;;;;;;;3.44;76.42;99453.34;6185263;23;20020;-75
2021/03/14 08:52:44;;;;;;;2.85;1.48;;;;;;;3.64;75.65;99464.25;6186973;23;20060;-75
2021/03/14 08:55:10;;;;;;;5.00;1.10;;;;;;;3.76;75.35;99465.41;6160536;23;20009;-75
2021/03/14 08:57:36;;;;;;;3.83;1.40;;;;;;;3.90;75.07;99468.19;6187625;23;20009;-75
2021/03/14 09:00:05;;;;;;;3.70;1.00;;;;;;;4.00;74.01;99469.53;6184598;23;20066;-76
2021/03/14 09:02:34;;;;;;;5.18;1.67;;;;;;;3.88;73.95;99459.59;6185368;23;20005;-76
2021/03/14 09:05:14;;;;;;;3.45;1.20;;;;;;;3.81;74.89;99471.97;6185781;23;20288;-75
2021/03/14 09:07:42;;;;;;;4.43;1.40;;;;;;;3.85;75.38;99482.09;6184888;23;20016;-76
2021/03/14 09:10:16;;;;;;;2.92;1.20;;;;;;;3.82;75.54;99484.28;6186489;23;20166;-75
2021/03/14 09:12:42;;;;;;;;;;;;;;;3.79;76.17;99485.50;6185490;23;20001;-75
2021/03/14 09:15:10;;;;;;;5.22;1.10;;;;;;;3.87;75.86;99482.69;6184370;23;19918;-75
2021/03/14 09:17:38;;;;;;;4.35;1.30;;;;;;;3.82;75.47;99469.16;6185283;23;20016;-75
2021/03/14 09:20:05;;;;;;;5.00;1.30;;;;;;;3.96;75.79;99488.75;6184055;23;20084;-75
2021/03/14 09:22:34;;;;;;;5.63;1.30;;;;;;;3.96;75.60;99473.59;6184982;23;20471;-76
2021/03/14 09:25:01;;;;;;;5.32;1.90;;;;;;;4.19;74.92;99494.72;6160915;23;20447;-76
2021/03/14 09:27:35;;;;;;;5.72;1.48;;;;;;;3.91;74.75;99461.88;6185129;23;20013;-75
2021/03/14 09:30:10;;;;;;;8.52;1.85;;;;;;;4.11;75.38;99505.50;6186966;23;20005;-76
2021/03/14 09:32:41;;;;;;;3.53;1.20;;;;;;;4.09;75.86;99510.19;6186559;23;20005;-76
2021/03/14 09:35:25;;;;;;;6.00;1.20;;;;;;;4.18;75.54;99514.38;6187328;23;20004;-75
2021/03/14 09:38:02;;;;;;;4.03;1.38;;;;;;;4.18;74.56;99494.91;6185636;23;20005;-75
2021/03/14 09:40:40;;;;;;;7.10;1.60;;;;;;;4.38;74.80;99519.06;6186678;23;20013;-75
2021/03/14 09:43:13;;;;;;;3.10;1.17;;;;;;;4.19;74.89;99486.72;6187021;23;19997;-75
2021/03/14 09:45:42;;;;;;;5.72;1.70;;;;;;;4.30;75.12;99489.91;6185211;23;20055;-76
2021/03/14 09:48:33;;;;;;;6.80;1.50;;;;;;;4.44;75.72;99518.31;6187023;23;20024;-76
2021/03/14 09:51:08;;;;;;;9.00;1.80;;;;;;;4.33;75.31;99505.50;6184919;23;20315;-76
2021/03/14 09:53:39;;;;;;;7.25;1.50;;;;;;;4.29;76.05;99501.56;6187089;23;20013;-76
2021/03/14 09:56:09;;;;;;;8.88;1.67;;;;;;;4.35;76.21;99519.44;6186820;23;20005;-76
2021/03/14 09:58:35;;;;;;;5.75;1.52;;;;;;;4.37;76.18;99525.38;6187361;23;19997;-75
2021/03/14 10:01:01;;;;;;;6.32;1.70;;;;;;;4.34;76.69;99523.97;6184856;23;20059;-75
2021/03/14 10:03:29;;;;;;;5.30;2.00;;;;;;;4.34;77.19;99529.28;6161245;23;20032;-75
2021/03/14 10:05:56;;;;;;;6.80;1.70;;;;;;;4.34;77.27;99529.28;6186912;23;20009;-76
2021/03/14 10:08:23;;;;;;;9.43;1.95;;;;;;;4.04;77.16;99479.81;6185967;23;20081;-75
2021/03/14 10:10:51;;;;;;;6.63;1.67;;;;;;;4.39;76.80;99536.69;6186251;23;20526;-75
2021/03/14 10:13:23;;;;;;;9.30;2.00;;;;;;;4.28;77.67;99518.56;6185956;23;20005;-76
2021/03/14 10:15:54;;;;;;;7.90;1.90;;;;;;;4.29;76.94;99518.38;6185336;23;20323;-76
2021/03/14 10:18:28;;;;;;;8.52;1.80;;;;;;;4.42;77.85;99531.00;6185292;23;20426;-76
2021/03/14 10:21:22;;;;;;;7.88;1.63;;;;;;;4.55;77.08;99548.94;6186089;23;20005;-75
2021/03/14 10:23:49;;;;;;;6.40;2.00;;;;;;;4.63;76.67;99554.94;6186818;23;20398;-76
2021/03/14 10:26:15;;;;;;;4.95;1.63;;;;;;;4.47;76.64;99533.91;6183918;23;20005;-76
2021/03/14 10:28:44;;;;;;;5.00;1.50;;;;;;;4.76;77.07;99564.91;6185792;23;20033;-76
2021/03/14 10:31:11;;;;;;;6.57;1.92;;;;;;;4.79;76.97;99545.84;6185787;23;20052;-75
2021/03/14 10:33:42;;;;;;;8.27;1.70;;;;;;;4.62;76.95;99512.53;6185365;23;20005;-76
2021/03/14 10:36:15;;;;;;;7.43;1.70;;;;;;;4.95;76.47;99550.09;6185450;23;20023;-76
2021/03/14 10:38:47;;;;;;;5.80;2.00;;;;;;;4.99;76.49;99545.19;6186411;23;20347;-76
2021/03/14 10:41:20;;;;;;;7.65;1.70;;;;;;;5.12;76.70;99567.44;6184574;23;20281;-76
2021/03/14 10:43:54;;;;;;;7.43;2.25;;;;;;;5.19;75.72;99565.66;6185214;23;19993;-75
2021/03/14 10:46:53;;;;;;;8.15;2.13;;;;;;;5.24;75.78;99564.25;6185699;23;20072;-76
2021/03/14 10:49:28;;;;;;;4.95;1.48;;;;;;;5.33;72.99;99569.25;6153347;23;20084;-76
2021/03/14 10:51:56;;;;;;;10.05;1.75;;;;;;;5.50;73.00;99561.75;6184651;23;20009;-76
2021/03/14 10:54:23;;;;;;;5.85;1.80;;;;;;;5.55;71.57;99569.97;6185208;23;20048;-76
2021/03/14 10:56:50;;;;;;;5.65;1.55;;;;;;;5.54;71.19;99568.34;6185777;23;20076;-76
2021/03/14 10:59:33;;;;;;;5.78;1.70;;;;;;;5.41;72.26;99561.06;6185551;23;20012;-76
2021/03/14 11:02:15;;;;;;;5.50;1.90;;;;;;;5.44;72.44;99570.53;6184064;23;20012;-75
2021/03/14 11:04:41;;;;;;;5.95;1.58;;;;;;;5.36;71.48;99560.84;6185019;23;20005;-75
2021/03/14 11:07:23;;;;;;;8.82;2.17;;;;;;;5.48;71.77;99578.97;6184120;23;20019;-76
2021/03/14 11:09:49;;;;;;;11.43;2.22;;;;;;;5.49;71.95;99576.09;6185395;23;20012;-76
2021/03/14 11:12:33;;;;;;;8.23;1.88;;;;;;;5.51;72.02;99566.06;6186442;23;20100;-76
2021/03/14 11:14:58;;;;;;;8.85;1.95;;;;;;;5.58;71.50;99574.94;6183463;23;20435;-75
2021/03/14 11:17:29;;;;;;;6.32;1.80;;;;;;;5.58;71.15;99582.13;6185011;23;20013;-76
2021/03/14 11:19:56;;;;;;;9.27;2.20;;;;;;;5.56;70.83;99576.97;6184588;23;20411;-76
2021/03/14 11:22:22;;;;;;;10.65;2.33;;;;;;;5.60;70.92;99580.91;6184340;23;20303;-76
2021/03/14 11:24:49;;;;;;;8.05;2.47;;;;;;;5.63;71.83;99585.03;6186439;23;20067;-75
2021/03/14 11:27:15;;;;;;;12.85;2.78;;;;;;;5.73;71.54;99589.97;6185455;23;20012;-75
2021/03/14 11:29:41;;;;;;;12.88;2.47;;;;;;;5.72;72.05;99591.81;6185542;23;20009;-76
2021/03/14 11:32:13;;;;;;;11.93;2.60;;;;;;;5.74;71.91;99594.31;6185554;23;20009;-76
2021/03/14 11:34:42;;;;;;;11.50;2.40;;;;;;;5.68;71.92;99581.75;6185329;23;20045;-75
2021/03/14 11:37:08;;;;;;;9.65;2.20;;;;;;;5.59;71.09;99581.09;6161159;23;20048;-76
2021/03/14 11:39:34;;;;;;;13.05;2.85;;;;;;;5.61;72.35;99592.41;6184641;23;20013;-75
2021/03/14 11:41:59;;;;;;;9.93;2.65;;;;;;;5.58;72.55;99590.94;6185905;23;20289;-76
2021/03/14 11:44:25;;;;;;;13.05;3.40;;;;;;;5.48;72.97;99573.63;6183853;23;20065;-75
2021/03/14 11:46:50;;;;;;;13.35;2.72;;;;;;;5.72;72.80;99604.34;6186548;23;20008;-77
2021/03/14 11:49:16;;;;;;;10.68;2.70;;;;;;;5.75;72.73;99579.94;6185582;23;20036;-77